Time;durP1;ratioP1;P1;durP2;ratioP2;P2;SDS_P1;SDS_P2;PMS_P1;PMS_P2;Temp;Humidity;BMP_temperature;BMP_pressure;BME280_temperature;BME280_humidity;BME280_pressure;Samples;Min_cycle;Max_cycle;Signal;HPM_P1;HPM_P2
2022/06/28 00:01:58;;;;;;;0.70;0.63;;;;;;;;;;5059243;28;20478;-78
2022/06/28 00:04:25;;;;;;;0.70;0.60;;;;;;;;;;5049277;28;20911;-78
2022/06/28 00:06:54;;;;;;;0.70;0.70;;;;;;;;;;5049054;28;20493;-77
2022/06/28 00:09:21;;;;;;;0.80;0.80;;;;;;;;;;5068417;28;20523;-77
2022/06/28 00:11:48;;;;;;;0.60;0.60;;;;;;;;;;5054935;28;20516;-77
2022/06/28 00:17:02;;;;;;;0.80;0.80;;;;;;;;;;5054752;28;20460;-77
2022/06/28 00:19:29;;;;;;;0.70;0.60;;;;;;;;;;5061008;28;20436;-77
2022/06/28 00:21:57;;;;;;;0.70;0.60;;;;;;;;;;5060015;28;20459;-77
2022/06/28 00:24:25;;;;;;;1.30;1.20;;;;;;;;;;5053960;28;20436;-77
2022/06/28 00:26:52;;;;;;;0.70;0.60;;;;;;;;;;5054744;28;20420;-77
2022/06/28 00:29:19;;;;;;;0.63;0.60;;;;;;;;;;5067099;28;20439;-77
2022/06/28 00:31:45;;;;;;;0.70;0.60;;;;;;;;;;5073361;28;20443;-78
2022/06/28 00:34:13;;;;;;;0.63;0.60;;;;;;;;;;5056662;28;20470;-78
2022/06/28 00:36:40;;;;;;;0.70;0.70;;;;;;;;;;5073043;28;20554;-77
2022/06/28 00:39:08;;;;;;;0.70;0.60;;;;;;;;;;5073560;28;20439;-78
2022/06/28 00:41:34;;;;;;;0.70;0.70;;;;;;;;;;5073796;28;20450;-78
2022/06/28 00:44:02;;;;;;;0.70;0.60;;;;;;;;;;5072055;28;20435;-77
2022/06/28 00:46:29;;;;;;;0.70;0.70;;;;;;;;;;5074622;28;20931;-77
2022/06/28 00:48:56;;;;;;;0.63;0.63;;;;;;;;;;5072942;28;20452;-77
2022/06/28 00:51:24;;;;;;;0.70;0.60;;;;;;;;;;5073127;28;20821;-77
2022/06/28 00:53:54;;;;;;;0.70;0.60;;;;;;;;;;5071238;28;20476;-77
2022/06/28 00:56:24;;;;;;;0.80;0.80;;;;;;;;;;5071382;28;20439;-77
2022/06/28 00:58:55;;;;;;;0.60;0.60;;;;;;;;;;5069619;28;20427;-77
2022/06/28 01:01:23;;;;;;;0.70;0.70;;;;;;;;;;5055431;28;20927;-77
2022/06/28 01:03:56;;;;;;;0.60;0.60;;;;;;;;;;5071575;28;20936;-77
2022/06/28 01:06:25;;;;;;;0.60;0.60;;;;;;;;;;5071869;28;20524;-77
2022/06/28 01:08:57;;;;;;;0.60;0.60;;;;;;;;;;5055554;28;20452;-77
2022/06/28 01:11:32;;;;;;;0.60;0.60;;;;;;;;;;5052007;28;20450;-77
2022/06/28 01:14:01;;;;;;;0.80;0.80;;;;;;;;;;5052413;28;20467;-77
2022/06/28 01:16:44;;;;;;;0.60;0.60;;;;;;;;;;5052705;28;20451;-77
2022/06/28 01:19:18;;;;;;;0.70;0.60;;;;;;;;;;5053043;28;20451;-76
2022/06/28 01:21:52;;;;;;;0.60;0.60;;;;;;;;;;5036827;28;21083;-77
2022/06/28 01:24:27;;;;;;;0.70;0.70;;;;;;;;;;5045493;28;20488;-77
2022/06/28 01:27:04;;;;;;;0.63;0.60;;;;;;;;;;5072183;28;20462;-77
2022/06/28 01:29:35;;;;;;;1.00;0.90;;;;;;;;;;5072159;28;20537;-77
2022/06/28 01:32:26;;;;;;;0.90;0.90;;;;;;;;;;5071914;28;20959;-77
2022/06/28 01:34:55;;;;;;;0.60;0.53;;;;;;;;;;5072420;28;20866;-77
2022/06/28 01:37:27;;;;;;;0.97;0.97;;;;;;;;;;5055262;28;20570;-77
2022/06/28 01:39:55;;;;;;;0.70;0.70;;;;;;;;;;5055465;28;20448;-77
2022/06/28 01:42:24;;;;;;;0.70;0.70;;;;;;;;;;5070612;28;20459;-77
2022/06/28 01:44:52;;;;;;;0.90;0.90;;;;;;;;;;5055746;28;20446;-77
2022/06/28 01:47:29;;;;;;;1.13;1.13;;;;;;;;;;5072272;28;20435;-77
2022/06/28 01:50:00;;;;;;;1.17;0.90;;;;;;;;;;5072241;28;20404;-76
2022/06/28 01:52:34;;;;;;;0.60;0.60;;;;;;;;;;5047966;28;20523;-77
2022/06/28 01:55:40;;;;;;;0.60;0.60;;;;;;;;;;5068739;28;20446;-77
2022/06/28 01:58:20;;;;;;;0.60;0.60;;;;;;;;;;5060619;28;20450;-77
2022/06/28 02:00:48;;;;;;;0.70;0.70;;;;;;;;;;5051013;28;20460;-77
2022/06/28 02:03:18;;;;;;;0.80;0.80;;;;;;;;;;5052296;28;20465;-78
2022/06/28 02:06:01;;;;;;;0.70;0.70;;;;;;;;;;5053082;28;20467;-77
2022/06/28 02:08:33;;;;;;;0.70;0.70;;;;;;;;;;5072327;28;20542;-77
2022/06/28 02:11:05;;;;;;;0.70;0.70;;;;;;;;;;5056094;28;20447;-77
2022/06/28 02:13:54;;;;;;;0.80;0.80;;;;;;;;;;5065114;28;20451;-77
2022/06/28 02:16:23;;;;;;;0.60;0.60;;;;;;;;;;5061970;28;20458;-77
2022/06/28 02:18:51;;;;;;;0.70;0.60;;;;;;;;;;5070115;28;21034;-77
2022/06/28 02:21:20;;;;;;;0.70;0.60;;;;;;;;;;5055159;28;20540;-77
2022/06/28 02:23:52;;;;;;;0.60;0.60;;;;;;;;;;5055370;28;20528;-77
2022/06/28 02:26:25;;;;;;;0.60;0.60;;;;;;;;;;5071601;28;20445;-77
2022/06/28 02:28:52;;;;;;;0.60;0.60;;;;;;;;;;5069013;28;20516;-77
2022/06/28 02:31:21;;;;;;;0.60;0.60;;;;;;;;;;5055234;28;20474;-77
2022/06/28 02:33:51;;;;;;;0.60;0.60;;;;;;;;;;5054959;28;20485;-77
2022/06/28 02:41:48;;;;;;;0.60;0.50;;;;;;;;;;5067746;28;21044;-77
2022/06/28 02:44:16;;;;;;;0.70;0.70;;;;;;;;;;5035046;28;20924;-77
2022/06/28 02:46:42;;;;;;;0.60;0.60;;;;;;;;;;5051652;28;20795;-77
2022/06/28 02:49:09;;;;;;;1.20;1.10;;;;;;;;;;5034161;28;20478;-77
2022/06/28 02:51:36;;;;;;;0.60;0.60;;;;;;;;;;5051814;28;20473;-78
2022/06/28 02:54:06;;;;;;;0.60;0.60;;;;;;;;;;5038769;28;20558;-78
2022/06/28 02:56:34;;;;;;;0.60;0.60;;;;;;;;;;5058985;28;21011;-78
2022/06/28 02:59:02;;;;;;;1.00;0.90;;;;;;;;;;5075232;28;20437;-77
2022/06/28 03:01:29;;;;;;;0.60;0.60;;;;;;;;;;5055436;28;20442;-77
2022/06/28 03:03:56;;;;;;;0.70;0.70;;;;;;;;;;5075101;28;21056;-78
2022/06/28 03:06:23;;;;;;;0.70;0.60;;;;;;;;;;5074516;28;20492;-77
2022/06/28 03:08:52;;;;;;;0.70;0.60;;;;;;;;;;5075475;28;20448;-78
2022/06/28 03:11:21;;;;;;;0.60;0.60;;;;;;;;;;5054862;28;20476;-78
2022/06/28 03:13:48;;;;;;;0.63;0.60;;;;;;;;;;5038446;28;20471;-78
2022/06/28 03:16:17;;;;;;;0.60;0.60;;;;;;;;;;5071364;28;20458;-78
2022/06/28 03:18:44;;;;;;;0.60;0.60;;;;;;;;;;5054683;28;20535;-77
2022/06/28 03:21:11;;;;;;;0.60;0.60;;;;;;;;;;5071188;28;20984;-78
2022/06/28 03:23:38;;;;;;;0.60;0.60;;;;;;;;;;5055005;28;20673;-78
2022/06/28 03:26:05;;;;;;;0.60;0.60;;;;;;;;;;5037238;28;20443;-78
2022/06/28 03:28:32;;;;;;;0.60;0.60;;;;;;;;;;5063564;28;20439;-77
2022/06/28 03:31:00;;;;;;;0.63;0.63;;;;;;;;;;5054811;28;20471;-77
2022/06/28 03:33:28;;;;;;;0.60;0.60;;;;;;;;;;5053998;28;20908;-77
2022/06/28 03:35:55;;;;;;;0.80;0.80;;;;;;;;;;5054099;28;20452;-78
2022/06/28 03:38:30;;;;;;;0.60;0.57;;;;;;;;;;5058699;28;20846;-78
2022/06/28 03:41:22;;;;;;;0.70;0.70;;;;;;;;;;5059805;28;20447;-78
2022/06/28 03:43:55;;;;;;;0.70;0.70;;;;;;;;;;5057346;28;20434;-77
2022/06/28 03:46:22;;;;;;;4.43;1.43;;;;;;;;;;5073221;28;20961;-77
2022/06/28 03:49:01;;;;;;;0.63;0.63;;;;;;;;;;5075494;28;20410;-77
2022/06/28 03:51:43;;;;;;;0.60;0.60;;;;;;;;;;5057382;28;20581;-77
2022/06/28 03:54:36;;;;;;;0.60;0.60;;;;;;;;;;5048393;28;20482;-77
2022/06/28 03:57:28;;;;;;;0.60;0.60;;;;;;;;;;5063491;28;20497;-78
2022/06/28 03:59:56;;;;;;;0.80;0.80;;;;;;;;;;5054456;28;20462;-78
2022/06/28 04:02:24;;;;;;;1.00;0.90;;;;;;;;;;5053018;28;20484;-78
2022/06/28 04:04:53;;;;;;;0.60;0.60;;;;;;;;;;5036516;28;20441;-77
2022/06/28 04:07:20;;;;;;;0.70;0.70;;;;;;;;;;5066203;28;20479;-77
2022/06/28 04:09:48;;;;;;;0.60;0.60;;;;;;;;;;5054384;28;20451;-78
2022/06/28 04:12:16;;;;;;;1.37;1.27;;;;;;;;;;5054443;28;20443;-78
2022/06/28 04:14:44;;;;;;;0.60;0.50;;;;;;;;;;5071988;28;21016;-78
2022/06/28 04:17:11;;;;;;;0.60;0.57;;;;;;;;;;5071410;28;20970;-78
2022/06/28 04:20:08;;;;;;;0.60;0.60;;;;;;;;;;5073859;28;20437;-77
2022/06/28 04:22:49;;;;;;;0.60;0.60;;;;;;;;;;5068636;28;20474;-78
2022/06/28 04:25:17;;;;;;;0.73;0.73;;;;;;;;;;5073888;28;20810;-78
2022/06/28 04:27:46;;;;;;;0.60;0.60;;;;;;;;;;5058889;28;20444;-78
2022/06/28 04:30:14;;;;;;;0.60;0.60;;;;;;;;;;5052056;28;20497;-78
2022/06/28 04:32:48;;;;;;;8.23;1.77;;;;;;;;;;5053252;28;20954;-78
2022/06/28 04:35:20;;;;;;;0.93;0.80;;;;;;;;;;5053292;28;20519;-77
2022/06/28 04:37:47;;;;;;;2.50;1.20;;;;;;;;;;5052746;28;20504;-77
2022/06/28 04:40:24;;;;;;;0.70;0.70;;;;;;;;;;5071726;28;20957;-78
2022/06/28 04:43:05;;;;;;;3.23;1.47;;;;;;;;;;5057406;28;20437;-78
2022/06/28 04:45:32;;;;;;;0.70;0.70;;;;;;;;;;5053492;28;20992;-77
2022/06/28 04:48:11;;;;;;;2.10;1.67;;;;;;;;;;5037745;28;20544;-77
2022/06/28 04:50:39;;;;;;;0.60;0.60;;;;;;;;;;5053146;28;20570;-78
2022/06/28 04:53:10;;;;;;;0.60;0.60;;;;;;;;;;5053039;28;21017;-78
2022/06/28 04:55:38;;;;;;;0.60;0.60;;;;;;;;;;5054939;28;20780;-78
2022/06/28 04:58:08;;;;;;;1.77;1.67;;;;;;;;;;5052028;28;20499;-77
2022/06/28 05:00:36;;;;;;;0.60;0.60;;;;;;;;;;5052291;28;20444;-77
2022/06/28 05:03:23;;;;;;;0.70;0.70;;;;;;;;;;5039719;28;20937;-77
2022/06/28 05:06:11;;;;;;;0.60;0.60;;;;;;;;;;5057829;28;20473;-78
2022/06/28 05:08:40;;;;;;;0.60;0.60;;;;;;;;;;5056338;28;20447;-77
2022/06/28 05:11:07;;;;;;;1.53;1.43;;;;;;;;;;5068720;28;20440;-77
2022/06/28 05:13:50;;;;;;;0.60;0.60;;;;;;;;;;5054680;28;20464;-77
2022/06/28 05:16:17;;;;;;;2.60;1.53;;;;;;;;;;5071344;28;20534;-77
2022/06/28 05:18:45;;;;;;;1.27;1.23;;;;;;;;;;5055126;28;20941;-77
2022/06/28 05:21:15;;;;;;;1.33;1.23;;;;;;;;;;5072844;28;20490;-77
2022/06/28 05:23:44;;;;;;;0.87;0.80;;;;;;;;;;5059543;28;20791;-77
2022/06/28 05:26:30;;;;;;;0.60;0.60;;;;;;;;;;5054823;28;20448;-77
2022/06/28 05:29:18;;;;;;;0.70;0.60;;;;;;;;;;5052414;28;20538;-78
2022/06/28 05:31:45;;;;;;;0.70;0.70;;;;;;;;;;5052601;28;20441;-78
2022/06/28 05:34:12;;;;;;;0.60;0.60;;;;;;;;;;5035411;28;20506;-78
2022/06/28 05:36:41;;;;;;;0.60;0.50;;;;;;;;;;5040887;28;20467;-78
2022/06/28 05:39:12;;;;;;;0.70;0.70;;;;;;;;;;5072810;28;20766;-77
2022/06/28 05:41:41;;;;;;;0.80;0.80;;;;;;;;;;5073779;28;20472;-77
2022/06/28 05:44:09;;;;;;;1.00;1.00;;;;;;;;;;5071616;28;20922;-78
2022/06/28 05:46:36;;;;;;;0.60;0.60;;;;;;;;;;5072166;28;20437;-77
2022/06/28 05:49:03;;;;;;;0.60;0.60;;;;;;;;;;5050424;28;20945;-78
2022/06/28 05:51:30;;;;;;;0.63;0.63;;;;;;;;;;5063988;28;20527;-77
2022/06/28 05:53:58;;;;;;;0.70;0.70;;;;;;;;;;5051238;28;20511;-77
2022/06/28 05:56:26;;;;;;;2.77;2.67;;;;;;;;;;5051819;28;20444;-77
2022/06/28 05:58:52;;;;;;;0.90;0.90;;;;;;;;;;5052658;28;20427;-77
2022/06/28 06:01:20;;;;;;;0.67;0.67;;;;;;;;;;5051907;28;20503;-77
2022/06/28 06:03:48;;;;;;;0.70;0.70;;;;;;;;;;5052664;28;20531;-77
2022/06/28 06:06:14;;;;;;;0.70;0.60;;;;;;;;;;5065687;28;20560;-77
2022/06/28 06:08:44;;;;;;;0.70;0.70;;;;;;;;;;5072547;28;20849;-77
2022/06/28 06:11:13;;;;;;;0.70;0.70;;;;;;;;;;5054836;28;20439;-75
2022/06/28 06:13:40;;;;;;;0.80;0.80;;;;;;;;;;5071838;28;20436;-77
2022/06/28 06:16:06;;;;;;;1.57;1.30;;;;;;;;;;5072071;28;20458;-77
2022/06/28 06:18:33;;;;;;;1.53;0.90;;;;;;;;;;5071772;28;20425;-78
2022/06/28 06:21:00;;;;;;;0.60;0.60;;;;;;;;;;5066529;28;20509;-77
2022/06/28 06:23:28;;;;;;;0.70;0.70;;;;;;;;;;5054531;28;20993;-76
2022/06/28 06:26:03;;;;;;;0.60;0.60;;;;;;;;;;5055921;28;20892;-77
2022/06/28 06:28:35;;;;;;;0.77;0.77;;;;;;;;;;5056792;28;20445;-78
2022/06/28 06:31:02;;;;;;;0.60;0.60;;;;;;;;;;5057262;28;20789;-77
2022/06/28 06:34:07;;;;;;;0.60;0.60;;;;;;;;;;5056332;28;20466;-77
2022/06/28 06:36:46;;;;;;;2.50;2.30;;;;;;;;;;5047975;28;20473;-77
2022/06/28 06:39:16;;;;;;;0.80;0.80;;;;;;;;;;5076534;28;20418;-77
2022/06/28 06:41:45;;;;;;;0.60;0.60;;;;;;;;;;5076218;28;20504;-78
2022/06/28 06:44:15;;;;;;;0.70;0.60;;;;;;;;;;5069661;28;20972;-77
2022/06/28 06:46:42;;;;;;;0.80;0.80;;;;;;;;;;5055700;28;21005;-78
2022/06/28 06:49:09;;;;;;;1.53;0.97;;;;;;;;;;5054655;28;20412;-78
2022/06/28 06:51:41;;;;;;;0.70;0.70;;;;;;;;;;5053453;28;20462;-78
2022/06/28 06:54:07;;;;;;;0.60;0.60;;;;;;;;;;5072765;28;20441;-77
2022/06/28 06:56:34;;;;;;;1.73;1.63;;;;;;;;;;5076543;28;20899;-78
2022/06/28 06:59:01;;;;;;;0.70;0.70;;;;;;;;;;5063149;28;20443;-78
2022/06/28 07:01:32;;;;;;;0.60;0.60;;;;;;;;;;5055060;28;20447;-79
2022/06/28 07:04:17;;;;;;;1.20;1.20;;;;;;;;;;5055280;28;20447;-79
2022/06/28 07:06:44;;;;;;;0.90;0.90;;;;;;;;;;5045204;28;20477;-79
2022/06/28 07:09:12;;;;;;;0.70;0.60;;;;;;;;;;5054051;28;20528;-79
2022/06/28 07:11:40;;;;;;;0.60;0.60;;;;;;;;;;5050584;28;20545;-79
2022/06/28 07:14:07;;;;;;;0.60;0.60;;;;;;;;;;5071408;28;20444;-79
2022/06/28 07:16:35;;;;;;;0.70;0.70;;;;;;;;;;5054088;28;20474;-79
2022/06/28 07:19:02;;;;;;;0.73;0.73;;;;;;;;;;5072650;28;20449;-79
2022/06/28 07:21:28;;;;;;;0.70;0.70;;;;;;;;;;5075041;28;20466;-79
2022/06/28 07:23:55;;;;;;;0.60;0.60;;;;;;;;;;5057683;28;20457;-79
2022/06/28 07:26:23;;;;;;;0.80;0.80;;;;;;;;;;5054709;28;20455;-80
2022/06/28 07:28:50;;;;;;;0.70;0.70;;;;;;;;;;5047700;28;20434;-78
2022/06/28 07:31:17;;;;;;;0.70;0.60;;;;;;;;;;5040517;28;20432;-79
2022/06/28 07:33:46;;;;;;;0.70;0.70;;;;;;;;;;5040382;28;20918;-79
2022/06/28 07:36:17;;;;;;;0.70;0.60;;;;;;;;;;5057455;28;20567;-78
2022/06/28 07:38:45;;;;;;;0.70;0.60;;;;;;;;;;5067421;28;20891;-79
2022/06/28 07:41:18;;;;;;;0.70;0.60;;;;;;;;;;5057988;28;20823;-79
2022/06/28 07:43:57;;;;;;;0.70;0.60;;;;;;;;;;5062156;28;20992;-78
2022/06/28 07:46:28;;;;;;;0.70;0.70;;;;;;;;;;5057618;28;20450;-78
2022/06/28 07:48:56;;;;;;;0.77;0.77;;;;;;;;;;5057632;28;20433;-79
2022/06/28 07:54:10;;;;;;;0.70;0.70;;;;;;;;;;5072523;28;20458;-79
2022/06/28 07:56:50;;;;;;;0.70;0.70;;;;;;;;;;5073332;28;20454;-78
2022/06/28 07:59:17;;;;;;;0.70;0.60;;;;;;;;;;5071316;28;20460;-78
2022/06/28 08:01:47;;;;;;;0.70;0.60;;;;;;;;;;5069475;28;20451;-79
2022/06/28 08:04:21;;;;;;;0.70;0.60;;;;;;;;;;5058032;28;20434;-79
2022/06/28 08:06:50;;;;;;;0.70;0.70;;;;;;;;;;5074128;28;20474;-78
2022/06/28 08:09:19;;;;;;;0.70;0.60;;;;;;;;;;5070192;28;20538;-77
2022/06/28 08:11:48;;;;;;;0.70;0.60;;;;;;;;;;5075665;28;20427;-77
2022/06/28 08:14:17;;;;;;;0.70;0.70;;;;;;;;;;5073768;28;20438;-78
2022/06/28 08:16:45;;;;;;;0.70;0.60;;;;;;;;;;5071191;28;20443;-76
2022/06/28 08:19:15;;;;;;;0.73;0.70;;;;;;;;;;5070307;28;21023;-78
2022/06/28 08:21:47;;;;;;;0.70;0.60;;;;;;;;;;5057647;28;20465;-76
2022/06/28 08:24:14;;;;;;;0.70;0.60;;;;;;;;;;5052209;28;20941;-76
2022/06/28 08:26:45;;;;;;;0.77;0.73;;;;;;;;;;5038749;28;20436;-76
2022/06/28 08:29:12;;;;;;;0.73;0.70;;;;;;;;;;5055208;28;20436;-76
2022/06/28 08:31:40;;;;;;;0.70;0.63;;;;;;;;;;5055696;28;20429;-77
2022/06/28 08:34:07;;;;;;;0.70;0.60;;;;;;;;;;5056003;28;20386;-77
2022/06/28 08:36:34;;;;;;;0.70;0.70;;;;;;;;;;5060095;28;20548;-76
2022/06/28 08:39:03;;;;;;;0.70;0.70;;;;;;;;;;5075336;28;20427;-76
2022/06/28 08:41:31;;;;;;;0.90;0.77;;;;;;;;;;5058375;28;20463;-76
2022/06/28 08:43:58;;;;;;;1.23;1.13;;;;;;;;;;5073516;28;20469;-76
2022/06/28 08:46:25;;;;;;;0.70;0.70;;;;;;;;;;5072395;28;20412;-77
2022/06/28 08:48:52;;;;;;;0.80;0.70;;;;;;;;;;5072998;28;20436;-77
2022/06/28 08:51:19;;;;;;;0.70;0.60;;;;;;;;;;5073448;28;20483;-76
2022/06/28 08:53:47;;;;;;;0.90;0.80;;;;;;;;;;5051468;28;20451;-77
2022/06/28 08:56:15;;;;;;;0.70;0.67;;;;;;;;;;5052493;28;20946;-76
2022/06/28 08:58:43;;;;;;;0.70;0.70;;;;;;;;;;5053876;28;20379;-75
2022/06/28 09:01:10;;;;;;;1.10;1.00;;;;;;;;;;5053307;28;20446;-76
2022/06/28 09:03:37;;;;;;;1.30;1.20;;;;;;;;;;5055087;28;20850;-78
2022/06/28 09:06:04;;;;;;;0.70;0.60;;;;;;;;;;5037738;28;20456;-76
2022/06/28 09:08:32;;;;;;;0.70;0.60;;;;;;;;;;5072528;28;20927;-76
2022/06/28 09:10:58;;;;;;;0.80;0.80;;;;;;;;;;5072205;28;20442;-76
2022/06/28 09:13:27;;;;;;;3.27;1.20;;;;;;;;;;5071894;28;20443;-76
2022/06/28 09:16:03;;;;;;;0.70;0.70;;;;;;;;;;5073016;28;20428;-76
2022/06/28 09:18:43;;;;;;;0.73;0.67;;;;;;;;;;5052239;28;21018;-76
2022/06/28 09:21:11;;;;;;;0.70;0.60;;;;;;;;;;5053676;28;20444;-76
2022/06/28 09:23:39;;;;;;;0.70;0.60;;;;;;;;;;5052729;28;20500;-75
2022/06/28 09:26:07;;;;;;;0.97;0.87;;;;;;;;;;5036272;28;20448;-76
2022/06/28 09:28:38;;;;;;;0.70;0.60;;;;;;;;;;5036132;28;20455;-76
2022/06/28 09:31:14;;;;;;;0.70;0.60;;;;;;;;;;5054090;28;20490;-75
2022/06/28 09:33:42;;;;;;;0.70;0.60;;;;;;;;;;5068605;28;20461;-76
2022/06/28 09:36:10;;;;;;;0.70;0.60;;;;;;;;;;5062920;28;20489;-76
2022/06/28 09:38:37;;;;;;;0.80;0.70;;;;;;;;;;5053360;28;20448;-75
2022/06/28 09:41:04;;;;;;;0.70;0.50;;;;;;;;;;5066467;28;20501;-75
2022/06/28 09:43:32;;;;;;;0.70;0.57;;;;;;;;;;5036058;28;20447;-75
2022/06/28 09:46:04;;;;;;;0.70;0.60;;;;;;;;;;5052880;28;20455;-76
2022/06/28 09:48:37;;;;;;;0.70;0.60;;;;;;;;;;5038276;28;20471;-74
2022/06/28 09:51:04;;;;;;;0.80;0.80;;;;;;;;;;5052542;28;20956;-76
2022/06/28 09:53:34;;;;;;;0.70;0.50;;;;;;;;;;5051437;28;20440;-77
2022/06/28 09:56:22;;;;;;;0.70;0.60;;;;;;;;;;5063083;28;20547;-76
2022/06/28 09:58:50;;;;;;;0.70;0.57;;;;;;;;;;5035957;28;20443;-74
2022/06/28 10:01:19;;;;;;;0.70;0.70;;;;;;;;;;5052174;28;20432;-75
2022/06/28 10:03:46;;;;;;;0.70;0.60;;;;;;;;;;5053498;28;20507;-75
2022/06/28 10:06:15;;;;;;;0.80;0.60;;;;;;;;;;5035345;28;20807;-75
2022/06/28 10:08:42;;;;;;;0.70;0.50;;;;;;;;;;5053440;28;20446;-74
2022/06/28 10:11:10;;;;;;;0.70;0.70;;;;;;;;;;5071972;28;20423;-74
2022/06/28 10:16:48;;;;;;;0.70;0.50;;;;;;;;;;5051206;28;20464;-76
2022/06/28 10:19:17;;;;;;;0.70;0.60;;;;;;;;;;5060783;28;20456;-74
2022/06/28 10:21:45;;;;;;;1.10;1.00;;;;;;;;;;5035601;28;20510;-75
2022/06/28 10:24:13;;;;;;;0.70;0.50;;;;;;;;;;5053985;28;20911;-75
2022/06/28 10:26:44;;;;;;;0.70;0.50;;;;;;;;;;5054833;28;20431;-75
2022/06/28 10:29:12;;;;;;;0.70;0.50;;;;;;;;;;5052663;28;20454;-75
2022/06/28 10:31:40;;;;;;;0.90;0.60;;;;;;;;;;5071560;28;20721;-78
2022/06/28 10:34:16;;;;;;;0.70;0.50;;;;;;;;;;5071872;28;20498;-75
2022/06/28 10:36:45;;;;;;;0.80;0.60;;;;;;;;;;5055072;28;20487;-76
2022/06/28 10:39:13;;;;;;;0.90;0.60;;;;;;;;;;5054957;28;20449;-77
2022/06/28 10:41:41;;;;;;;0.80;0.50;;;;;;;;;;5055002;28;20462;-76
2022/06/28 10:44:09;;;;;;;0.80;0.50;;;;;;;;;;5070000;28;20964;-75
2022/06/28 10:46:36;;;;;;;0.80;0.53;;;;;;;;;;5069376;28;20499;-75
2022/06/28 10:49:07;;;;;;;0.80;0.53;;;;;;;;;;5070155;28;20533;-77
2022/06/28 10:51:37;;;;;;;0.80;0.50;;;;;;;;;;5074509;28;20469;-77
2022/06/28 10:54:08;;;;;;;0.80;0.50;;;;;;;;;;5071828;28;20831;-76
2022/06/28 10:56:46;;;;;;;0.80;0.67;;;;;;;;;;5041984;28;20455;-76
2022/06/28 10:59:14;;;;;;;0.80;0.50;;;;;;;;;;5066505;28;20503;-76
2022/06/28 11:01:54;;;;;;;1.10;0.80;;;;;;;;;;5070921;28;20492;-77
2022/06/28 11:04:22;;;;;;;0.80;0.50;;;;;;;;;;5055235;28;20438;-76
2022/06/28 11:06:51;;;;;;;0.80;0.50;;;;;;;;;;5046908;28;20459;-77
2022/06/28 11:09:22;;;;;;;0.80;0.50;;;;;;;;;;5051359;28;20432;-76
2022/06/28 11:12:06;;;;;;;0.80;0.50;;;;;;;;;;5035085;28;20436;-76
2022/06/28 11:14:43;;;;;;;0.80;0.50;;;;;;;;;;5055636;28;20427;-76
2022/06/28 11:17:14;;;;;;;0.80;0.50;;;;;;;;;;5056287;28;20459;-77
2022/06/28 11:19:50;;;;;;;0.80;0.50;;;;;;;;;;5054628;28;20411;-75
2022/06/28 11:22:20;;;;;;;0.90;0.60;;;;;;;;;;5038709;28;20501;-75
2022/06/28 11:24:47;;;;;;;0.80;0.50;;;;;;;;;;5054367;28;20746;-76
2022/06/28 11:27:22;;;;;;;0.80;0.50;;;;;;;;;;5068824;28;20458;-75
2022/06/28 11:29:50;;;;;;;0.80;0.50;;;;;;;;;;5070543;28;21042;-75
2022/06/28 11:32:18;;;;;;;0.80;0.60;;;;;;;;;;5070010;28;20538;-74
2022/06/28 11:34:53;;;;;;;0.80;0.50;;;;;;;;;;5061474;28;20469;-74
2022/06/28 11:37:21;;;;;;;0.80;0.50;;;;;;;;;;5058288;28;20752;-76
2022/06/28 11:39:50;;;;;;;0.80;0.50;;;;;;;;;;5053673;28;20424;-76
2022/06/28 11:42:17;;;;;;;1.00;0.60;;;;;;;;;;5054111;28;20444;-75
2022/06/28 11:44:45;;;;;;;0.80;0.50;;;;;;;;;;5045741;28;20439;-76
2022/06/28 11:47:18;;;;;;;0.80;0.60;;;;;;;;;;5057633;28;20438;-75
2022/06/28 11:49:49;;;;;;;0.80;0.50;;;;;;;;;;5070942;28;20440;-75
2022/06/28 11:52:16;;;;;;;0.80;0.50;;;;;;;;;;5045110;28;20475;-75
2022/06/28 11:54:52;;;;;;;0.80;0.50;;;;;;;;;;5056922;28;20423;-75
2022/06/28 11:57:19;;;;;;;0.70;0.50;;;;;;;;;;5075935;28;20462;-76
2022/06/28 11:59:51;;;;;;;0.80;0.50;;;;;;;;;;5059596;28;20454;-75
2022/06/28 12:02:21;;;;;;;0.80;0.50;;;;;;;;;;5055005;28;20567;-76
2022/06/28 12:04:55;;;;;;;0.80;0.50;;;;;;;;;;5056050;28;20476;-76
2022/06/28 12:07:31;;;;;;;0.80;0.50;;;;;;;;;;5069152;28;20528;-75
2022/06/28 12:09:59;;;;;;;0.80;0.50;;;;;;;;;;5075444;28;20450;-76
2022/06/28 12:12:26;;;;;;;0.80;0.50;;;;;;;;;;5076548;28;20426;-76
2022/06/28 12:14:55;;;;;;;0.80;0.50;;;;;;;;;;5059268;28;20443;-76
2022/06/28 12:17:23;;;;;;;0.80;0.50;;;;;;;;;;5074693;28;20463;-76
2022/06/28 12:19:50;;;;;;;0.80;0.60;;;;;;;;;;5071274;28;20939;-77
2022/06/28 12:22:19;;;;;;;0.80;0.60;;;;;;;;;;5073798;28;20458;-76
2022/06/28 12:24:47;;;;;;;0.80;0.50;;;;;;;;;;5056453;28;20879;-75
2022/06/28 12:27:24;;;;;;;0.80;0.50;;;;;;;;;;5070767;28;20448;-74
2022/06/28 12:29:52;;;;;;;0.80;0.57;;;;;;;;;;5055492;28;20431;-78
2022/06/28 12:32:19;;;;;;;0.80;0.50;;;;;;;;;;5055562;28;20451;-75
2022/06/28 12:35:07;;;;;;;0.80;0.63;;;;;;;;;;5053130;28;20838;-75
2022/06/28 12:37:34;;;;;;;0.80;0.50;;;;;;;;;;5065384;28;20460;-75
2022/06/28 12:40:03;;;;;;;0.80;0.50;;;;;;;;;;5054648;28;20928;-75
2022/06/28 12:42:31;;;;;;;0.80;0.50;;;;;;;;;;5056062;28;20859;-75
2022/06/28 12:45:01;;;;;;;0.80;0.50;;;;;;;;;;5054097;28;20930;-74
2022/06/28 12:47:29;;;;;;;0.80;0.50;;;;;;;;;;5053784;28;20431;-75
2022/06/28 12:49:59;;;;;;;0.80;0.50;;;;;;;;;;5053069;28;20786;-75
2022/06/28 12:52:27;;;;;;;0.80;0.50;;;;;;;;;;5071634;28;20455;-74
2022/06/28 12:54:54;;;;;;;0.80;0.50;;;;;;;;;;5073529;28;20426;-73
2022/06/28 12:57:20;;;;;;;0.80;0.50;;;;;;;;;;5056918;28;21061;-74
2022/06/28 12:59:49;;;;;;;0.80;0.50;;;;;;;;;;5068641;28;20471;-76
2022/06/28 13:02:16;;;;;;;0.80;0.50;;;;;;;;;;5056415;28;20440;-74
2022/06/28 13:04:47;;;;;;;0.80;0.50;;;;;;;;;;5072499;28;20544;-75
2022/06/28 13:07:14;;;;;;;1.20;0.63;;;;;;;;;;5062428;28;20448;-74
2022/06/28 13:09:41;;;;;;;0.90;0.60;;;;;;;;;;5051142;28;20450;-75
2022/06/28 13:12:08;;;;;;;0.80;0.50;;;;;;;;;;5051791;28;20416;-74
2022/06/28 13:14:35;;;;;;;0.80;0.60;;;;;;;;;;5051995;28;20462;-74
2022/06/28 13:17:05;;;;;;;0.80;0.50;;;;;;;;;;5056032;28;20562;-74
2022/06/28 13:19:32;;;;;;;0.80;0.50;;;;;;;;;;5052994;28;20447;-74
2022/06/28 13:21:59;;;;;;;1.10;0.80;;;;;;;;;;5053215;28;20526;-74
2022/06/28 13:24:26;;;;;;;1.13;0.70;;;;;;;;;;5053387;28;20424;-75
2022/06/28 13:26:55;;;;;;;0.80;0.50;;;;;;;;;;5075631;28;20831;-75
2022/06/28 13:29:22;;;;;;;1.53;0.70;;;;;;;;;;5043296;28;20478;-77
2022/06/28 13:31:51;;;;;;;0.80;0.50;;;;;;;;;;5052160;28;20787;-74
2022/06/28 13:34:21;;;;;;;0.80;0.50;;;;;;;;;;5053442;28;20491;-76
2022/06/28 13:36:47;;;;;;;0.90;0.70;;;;;;;;;;5071061;28;20470;-73
2022/06/28 13:39:15;;;;;;;0.90;0.63;;;;;;;;;;5072297;28;20423;-76
2022/06/28 13:41:42;;;;;;;0.80;0.50;;;;;;;;;;5061301;28;20561;-76
2022/06/28 13:44:10;;;;;;;0.80;0.60;;;;;;;;;;5052755;28;20420;-75
2022/06/28 13:46:37;;;;;;;0.80;0.50;;;;;;;;;;5067626;28;20447;-75
2022/06/28 13:49:05;;;;;;;0.80;0.50;;;;;;;;;;5052439;28;20448;-75
2022/06/28 13:51:33;;;;;;;0.80;0.50;;;;;;;;;;5052942;28;20498;-75
2022/06/28 13:54:00;;;;;;;0.80;0.50;;;;;;;;;;5052321;28;20416;-74
2022/06/28 13:56:27;;;;;;;0.80;0.50;;;;;;;;;;5054816;28;20935;-75
2022/06/28 13:58:54;;;;;;;0.80;0.50;;;;;;;;;;5052453;28;20451;-75
2022/06/28 14:01:21;;;;;;;0.80;0.50;;;;;;;;;;5052032;28;20435;-75
2022/06/28 14:03:48;;;;;;;0.80;0.60;;;;;;;;;;5052077;28;20416;-76
2022/06/28 14:06:15;;;;;;;0.80;0.60;;;;;;;;;;5071108;28;20474;-76
2022/06/28 14:08:43;;;;;;;0.90;0.60;;;;;;;;;;5054830;28;20943;-75
2022/06/28 14:11:10;;;;;;;1.20;0.87;;;;;;;;;;5067885;28;21119;-74
2022/06/28 14:13:36;;;;;;;0.80;0.50;;;;;;;;;;5050945;28;20951;-74
2022/06/28 14:16:04;;;;;;;0.80;0.50;;;;;;;;;;5052062;28;20812;-74
2022/06/28 14:18:31;;;;;;;0.80;0.50;;;;;;;;;;5052148;28;20975;-73
2022/06/28 14:20:58;;;;;;;0.80;0.50;;;;;;;;;;5051388;28;20463;-76
2022/06/28 14:23:25;;;;;;;0.80;0.50;;;;;;;;;;5053551;28;20512;-78
2022/06/28 14:25:53;;;;;;;0.80;0.50;;;;;;;;;;5052189;28;20487;-78
2022/06/28 14:28:24;;;;;;;0.80;0.50;;;;;;;;;;5060160;28;20870;-77
2022/06/28 14:30:59;;;;;;;0.90;0.63;;;;;;;;;;5055419;28;20867;-78
2022/06/28 14:33:26;;;;;;;0.80;0.50;;;;;;;;;;5052836;28;20420;-78
2022/06/28 14:35:55;;;;;;;0.80;0.50;;;;;;;;;;5036032;28;20462;-75
2022/06/28 14:38:23;;;;;;;0.80;0.50;;;;;;;;;;5045090;28;20460;-75
2022/06/28 14:40:53;;;;;;;0.80;0.50;;;;;;;;;;5038042;28;20855;-77
2022/06/28 14:43:20;;;;;;;0.80;0.50;;;;;;;;;;5051775;28;21098;-76
2022/06/28 14:45:47;;;;;;;0.80;0.50;;;;;;;;;;5053085;28;20432;-77
2022/06/28 14:48:21;;;;;;;0.80;0.50;;;;;;;;;;5054579;28;20464;-76
2022/06/28 14:50:48;;;;;;;0.77;0.50;;;;;;;;;;5069380;28;20519;-77
2022/06/28 14:53:15;;;;;;;0.73;0.60;;;;;;;;;;5057006;28;20823;-76
2022/06/28 14:55:48;;;;;;;0.70;0.50;;;;;;;;;;5050287;28;20443;-78
2022/06/28 14:58:17;;;;;;;0.70;0.60;;;;;;;;;;5066619;28;20481;-77
2022/06/28 15:00:44;;;;;;;0.70;0.60;;;;;;;;;;5076481;28;20484;-76
2022/06/28 15:03:14;;;;;;;0.80;0.60;;;;;;;;;;5072851;28;20442;-77
2022/06/28 15:05:41;;;;;;;0.70;0.50;;;;;;;;;;5075109;28;20483;-77
2022/06/28 15:08:08;;;;;;;0.70;0.50;;;;;;;;;;5066002;28;20451;-76
2022/06/28 15:10:38;;;;;;;0.70;0.60;;;;;;;;;;5056261;28;20436;-77
2022/06/28 15:13:05;;;;;;;0.70;0.50;;;;;;;;;;5055061;28;20543;-77
2022/06/28 15:15:34;;;;;;;0.70;0.50;;;;;;;;;;5056171;28;20514;-76